KHMT/HMT METAR and TAF weather

Enter ICAO airport designator
Station Type Date Time Source
KHMT METAR 2021/05/12 03:55 UTC NOAA

KHMT 120355Z AUTO 24010KT 10SM CLR 16/13 A2996 RMK AO2 T01550126


Station Type Date Time Source
KHMT Decoded METAR 2021/05/12 03:55 UTC NOAA

Station name not available
May 11, 2021 - 11:55 PM EDT / 2021.05.12 0355 UTC
Wind: from the WSW (240 degrees) at 12 MPH (10 KT):0
Visibility: 10 mile(s):0
Sky conditions: clear
Temperature: 59.9 F (15.5 C)
Dew Point: 54.7 F (12.6 C)
Relative Humidity: 82%
Pressure (altimeter): 29.96 in. Hg (1014 hPa)
ob: KHMT 120355Z AUTO 24010KT 10SM CLR 16/13 A2996 RMK AO2 T01550126
cycle: 4

Station Type Date Time Source
KHMT TAF UTC NOAA

Error!

Example: see airport list